Time;durP1;ratioP1;P1;durP2;ratioP2;P2;SDS_P1;SDS_P2;PMS_P1;PMS_P2;Temp;Humidity;BMP_temperature;BMP_pressure;BME280_temperature;BME280_humidity;BME280_pressure;Samples;Min_cycle;Max_cycle;Signal;HPM_P1;HPM_P2
2023/10/21 00:00:12;;;;;;;23.02;16.85;;;7.20;1.00;;;;;;5154048;27;21464;-73
2023/10/21 00:02:39;;;;;;;21.20;16.73;;;7.30;1.00;;;;;;5153540;27;20240;-72
2023/10/21 00:05:07;;;;;;;26.88;18.20;;;7.40;1.00;;;;;;5153489;27;20549;-74
2023/10/21 00:07:34;;;;;;;21.50;16.40;;;7.40;1.00;;;;;;5144407;27;20244;-74
2023/10/21 00:10:01;;;;;;;25.93;16.97;;;7.50;1.00;;;;;;5130674;27;20478;-74
2023/10/21 00:12:28;;;;;;;25.95;17.10;;;7.40;1.00;;;;;;5140846;27;20468;-73
2023/10/21 00:14:55;;;;;;;24.63;16.95;;;7.40;1.00;;;;;;5145050;27;20237;-75
2023/10/21 00:17:23;;;;;;;21.35;16.08;;;7.40;1.00;;;;;;5152678;27;20319;-75
2023/10/21 00:19:50;;;;;;;22.95;17.35;;;7.40;1.00;;;;;;5153854;27;20245;-72
2023/10/21 00:22:17;;;;;;;22.27;16.90;;;7.50;1.00;;;;;;5140592;27;21021;-74
2023/10/21 00:24:50;;;;;;;22.77;16.95;;;7.40;1.00;;;;;;5132496;27;20469;-73
2023/10/21 00:27:17;;;;;;;23.52;18.45;;;7.40;1.00;;;;;;5131965;27;20245;-72
2023/10/21 00:29:44;;;;;;;26.48;20.25;;;7.50;1.00;;;;;;5132901;27;20239;-72
2023/10/21 00:32:11;;;;;;;23.67;18.02;;;7.50;1.00;;;;;;5135937;27;20237;-74
2023/10/21 00:34:42;;;;;;;28.52;19.65;;;7.50;1.00;;;;;;5143930;27;20626;-76
2023/10/21 00:37:10;;;;;;;27.98;19.05;;;7.40;1.00;;;;;;5145784;27;20232;-74
2023/10/21 00:39:38;;;;;;;26.80;17.88;;;7.40;1.00;;;;;;5153324;27;21242;-76
2023/10/21 00:42:06;;;;;;;27.40;19.02;;;7.50;1.00;;;;;;5154727;27;20230;-76
2023/10/21 00:44:33;;;;;;;25.63;18.40;;;7.40;1.00;;;;;;5154407;27;21495;-74
2023/10/21 00:47:01;;;;;;;27.95;18.95;;;7.50;1.00;;;;;;5151157;27;20277;-77
2023/10/21 00:49:31;;;;;;;30.17;17.98;;;7.40;1.00;;;;;;5145596;27;20697;-73
2023/10/21 00:52:04;;;;;;;28.30;18.42;;;7.50;1.00;;;;;;5139995;27;20630;-75
2023/10/21 00:54:31;;;;;;;28.93;19.90;;;7.50;1.00;;;;;;5149212;27;20235;-73
2023/10/21 00:56:59;;;;;;;27.73;18.45;;;7.50;1.00;;;;;;5155227;27;20452;-75
2023/10/21 00:59:26;;;;;;;29.02;19.40;;;7.50;1.00;;;;;;5145542;27;20318;-76
2023/10/21 01:01:54;;;;;;;29.52;20.10;;;7.40;1.00;;;;;;5151281;27;20269;-72
2023/10/21 01:04:24;;;;;;;32.25;21.13;;;7.40;1.00;;;;;;5152556;27;20235;-75
2023/10/21 01:06:53;;;;;;;24.00;18.25;;;7.40;1.00;;;;;;5151146;27;20234;-77
2023/10/21 01:09:22;;;;;;;28.27;20.73;;;7.40;1.00;;;;;;5154733;27;20241;-74
2023/10/21 01:11:49;;;;;;;25.90;19.90;;;7.40;1.00;;;;;;5151104;27;20724;-77
2023/10/21 01:14:17;;;;;;;26.42;19.83;;;7.50;1.00;;;;;;5153390;27;20336;-75
2023/10/21 01:16:44;;;;;;;26.35;19.38;;;7.50;1.00;;;;;;5154229;27;20315;-75
2023/10/21 01:19:13;;;;;;;26.13;19.33;;;7.60;1.00;;;;;;5153251;27;21258;-75
2023/10/21 01:21:42;;;;;;;28.80;19.93;;;7.60;1.00;;;;;;5150613;27;20235;-75
2023/10/21 01:24:11;;;;;;;28.88;19.63;;;7.60;1.00;;;;;;5160966;27;20438;-76
2023/10/21 01:26:38;;;;;;;32.80;20.93;;;7.60;1.00;;;;;;5135905;27;20241;-76
2023/10/21 01:29:11;;;;;;;26.73;21.17;;;7.70;1.00;;;;;;5146379;27;20468;-76
2023/10/21 01:31:39;;;;;;;29.50;20.83;;;7.70;1.00;;;;;;5152241;27;20219;-76
2023/10/21 01:34:07;;;;;;;32.97;22.05;;;7.70;1.00;;;;;;5153489;27;20237;-76
2023/10/21 01:36:34;;;;;;;28.17;21.13;;;7.60;1.00;;;;;;5154151;27;20236;-76
2023/10/21 01:39:04;;;;;;;27.08;21.08;;;7.70;1.00;;;;;;5135193;27;20230;-76
2023/10/21 01:41:33;;;;;;;27.90;21.00;;;7.80;1.00;;;;;;5137030;27;20238;-73
2023/10/21 01:44:00;;;;;;;35.83;21.87;;;7.80;1.00;;;;;;5129427;27;20461;-73
2023/10/21 01:46:27;;;;;;;29.45;19.92;;;7.80;1.00;;;;;;5149085;27;20452;-74
2023/10/21 01:48:54;;;;;;;29.23;21.97;;;7.80;1.00;;;;;;5150441;27;20238;-74
2023/10/21 01:51:21;;;;;;;28.50;21.77;;;7.80;1.00;;;;;;5134378;27;20451;-74
2023/10/21 01:53:48;;;;;;;29.00;19.25;;;7.80;1.00;;;;;;5133821;27;21202;-75
2023/10/21 01:56:15;;;;;;;31.10;21.97;;;8.00;1.00;;;;;;5136267;27;20809;-75
2023/10/21 01:58:43;;;;;;;34.40;23.02;;;8.00;1.00;;;;;;5144625;27;20492;-72
2023/10/21 02:01:11;;;;;;;30.10;22.50;;;8.00;1.00;;;;;;5153052;27;20234;-73
2023/10/21 02:03:38;;;;;;;32.72;23.70;;;7.80;1.00;;;;;;5153471;27;21069;-74
2023/10/21 02:06:06;;;;;;;30.10;22.23;;;7.80;1.00;;;;;;5152414;27;20736;-74
2023/10/21 02:08:34;;;;;;;32.38;23.20;;;7.80;1.00;;;;;;5155046;27;20238;-75
2023/10/21 02:11:02;;;;;;;34.50;23.07;;;7.90;1.00;;;;;;5153854;27;20325;-73
2023/10/21 02:13:29;;;;;;;35.87;23.67;;;7.90;1.00;;;;;;5153327;27;20980;-73
2023/10/21 02:15:59;;;;;;;32.90;22.40;;;7.90;1.00;;;;;;5151764;27;20467;-73
2023/10/21 02:18:26;;;;;;;32.37;22.33;;;7.80;1.00;;;;;;5152600;27;20243;-74
2023/10/21 02:20:53;;;;;;;32.92;23.10;;;7.80;1.00;;;;;;5151879;27;20456;-74
2023/10/21 02:23:20;;;;;;;42.30;24.50;;;7.90;1.00;;;;;;5151917;27;20238;-73
2023/10/21 02:25:47;;;;;;;32.38;22.52;;;7.90;1.00;;;;;;5153473;27;20680;-75
2023/10/21 02:28:14;;;;;;;34.42;22.70;;;7.90;1.00;;;;;;5150960;27;20250;-72
2023/10/21 02:30:42;;;;;;;34.27;21.63;;;7.90;1.00;;;;;;5149806;27;20238;-72
2023/10/21 02:33:11;;;;;;;31.27;22.53;;;7.90;1.00;;;;;;5155082;27;20503;-72
2023/10/21 02:35:37;;;;;;;31.85;22.75;;;7.90;1.00;;;;;;5154980;27;20463;-72
2023/10/21 02:38:05;;;;;;;37.70;24.10;;;7.90;1.00;;;;;;5155010;27;20241;-73
2023/10/21 02:40:31;;;;;;;38.17;23.37;;;7.90;1.00;;;;;;5155460;27;20461;-73
2023/10/21 02:42:59;;;;;;;31.23;22.23;;;8.00;1.00;;;;;;5155350;27;20854;-75
2023/10/21 02:45:26;;;;;;;35.00;22.70;;;8.00;1.00;;;;;;5154031;27;20559;-73
2023/10/21 02:47:53;;;;;;;35.90;24.23;;;7.90;1.00;;;;;;5152778;27;20484;-74
2023/10/21 02:50:21;;;;;;;36.33;22.60;;;8.10;1.00;;;;;;5151500;27;20269;-75
2023/10/21 02:52:49;;;;;;;28.15;22.17;;;8.00;1.00;;;;;;5145167;27;20486;-74
2023/10/21 02:55:16;;;;;;;35.85;22.70;;;8.00;1.00;;;;;;5149304;27;20725;-76
2023/10/21 02:57:44;;;;;;;36.85;23.00;;;8.00;1.00;;;;;;5132825;27;20270;-74
2023/10/21 03:00:15;;;;;;;37.90;22.90;;;8.00;1.00;;;;;;5134262;27;20222;-74
2023/10/21 03:02:42;;;;;;;36.00;23.40;;;8.00;1.00;;;;;;5134797;27;20468;-75
2023/10/21 03:05:09;;;;;;;38.33;24.70;;;8.00;1.00;;;;;;5140662;27;20266;-75
2023/10/21 03:07:37;;;;;;;32.83;22.90;;;8.00;1.00;;;;;;5137347;27;20248;-77
2023/10/21 03:10:06;;;;;;;35.67;24.92;;;8.00;1.00;;;;;;5147765;27;20512;-75
2023/10/21 03:12:33;;;;;;;38.53;26.10;;;8.00;1.00;;;;;;5155749;27;20229;-75
2023/10/21 03:15:01;;;;;;;36.90;23.38;;;8.00;1.00;;;;;;5154753;27;20500;-75
2023/10/21 03:17:28;;;;;;;35.27;23.40;;;8.00;1.00;;;;;;5156431;27;20234;-75
2023/10/21 03:19:55;;;;;;;42.23;26.10;;;8.00;1.00;;;;;;5154354;27;20542;-74
2023/10/21 03:22:22;;;;;;;44.60;24.50;;;8.00;1.00;;;;;;5150695;27;20466;-73
2023/10/21 03:24:50;;;;;;;38.78;24.63;;;8.00;1.00;;;;;;5153822;27;20249;-74
2023/10/21 03:27:17;;;;;;;40.50;23.03;;;8.00;1.00;;;;;;5154625;27;20328;-74
2023/10/21 03:29:44;;;;;;;44.53;24.20;;;8.00;1.00;;;;;;5152718;27;20463;-75
2023/10/21 03:32:12;;;;;;;40.10;22.73;;;7.90;1.00;;;;;;5154241;27;20464;-77
2023/10/21 03:34:38;;;;;;;35.97;24.17;;;7.90;1.00;;;;;;5146969;27;21286;-76
2023/10/21 03:37:05;;;;;;;41.80;23.13;;;7.90;1.00;;;;;;5135539;27;21045;-77
2023/10/21 03:39:32;;;;;;;50.23;26.17;;;7.90;1.00;;;;;;5140679;27;20536;-76
2023/10/21 03:42:01;;;;;;;51.47;26.10;;;7.90;1.00;;;;;;5133311;27;20472;-75
2023/10/21 03:44:28;;;;;;;48.42;25.65;;;7.90;1.00;;;;;;5130462;27;20582;-76
2023/10/21 03:46:55;;;;;;;44.93;26.30;;;7.90;1.00;;;;;;5133300;27;20245;-72
2023/10/21 03:49:22;;;;;;;42.47;24.17;;;7.90;1.00;;;;;;5133635;27;20445;-75
2023/10/21 03:51:49;;;;;;;47.60;26.02;;;7.90;1.00;;;;;;5141339;27;20496;-74
2023/10/21 03:54:16;;;;;;;44.87;25.53;;;7.90;1.00;;;;;;5143107;27;20707;-74
2023/10/21 03:56:43;;;;;;;45.60;26.00;;;7.90;1.00;;;;;;5141779;27;20544;-74
2023/10/21 03:59:11;;;;;;;50.30;26.70;;;8.00;1.00;;;;;;5146762;27;20542;-75
2023/10/21 04:01:39;;;;;;;45.50;24.33;;;7.90;1.00;;;;;;5153113;27;20495;-76
2023/10/21 04:04:07;;;;;;;37.25;24.30;;;7.90;1.00;;;;;;5124857;27;20230;-70
2023/10/21 04:06:34;;;;;;;58.85;26.73;;;8.00;1.00;;;;;;5127433;27;20325;-70
2023/10/21 04:09:01;;;;;;;41.70;25.60;;;7.90;1.00;;;;;;5132391;27;20959;-70
2023/10/21 04:11:28;;;;;;;38.00;24.57;;;8.00;1.00;;;;;;5140332;27;21258;-69
2023/10/21 04:13:55;;;;;;;58.30;26.05;;;8.10;1.00;;;;;;5151574;27;20942;-70
2023/10/21 04:16:23;;;;;;;46.30;26.00;;;8.10;1.00;;;;;;5153591;27;20283;-72
2023/10/21 04:18:50;;;;;;;41.00;24.27;;;8.10;1.00;;;;;;5151919;27;20489;-74
2023/10/21 04:21:18;;;;;;;38.27;25.00;;;8.10;1.00;;;;;;5150865;27;20543;-71
2023/10/21 04:23:45;;;;;;;35.37;23.70;;;8.20;1.00;;;;;;5151439;27;20459;-70
2023/10/21 04:26:12;;;;;;;37.30;24.90;;;8.30;1.00;;;;;;5154045;27;20962;-69
2023/10/21 04:28:39;;;;;;;47.40;26.40;;;8.20;1.00;;;;;;5150219;27;21324;-69
2023/10/21 04:31:06;;;;;;;54.30;27.90;;;8.10;1.00;;;;;;5150701;27;20454;-70
2023/10/21 04:33:35;;;;;;;40.30;26.00;;;8.00;1.00;;;;;;5152960;27;22033;-69
2023/10/21 04:36:02;;;;;;;76.43;28.73;;;8.00;1.00;;;;;;5148559;27;21291;-73
2023/10/21 04:38:30;;;;;;;48.60;25.73;;;8.10;1.00;;;;;;5147508;27;20539;-70
2023/10/21 04:40:57;;;;;;;51.60;26.10;;;8.10;1.00;;;;;;5150223;27;20460;-69
2023/10/21 04:43:24;;;;;;;54.13;25.75;;;8.00;1.00;;;;;;5152498;27;20448;-71
2023/10/21 04:45:51;;;;;;;48.93;25.43;;;8.00;1.00;;;;;;5143077;27;20341;-68
2023/10/21 04:48:17;;;;;;;46.17;24.80;;;8.10;1.00;;;;;;5154142;27;20545;-69
2023/10/21 04:50:47;;;;;;;49.93;26.57;;;8.10;1.00;;;;;;5142926;27;20475;-70
2023/10/21 04:53:14;;;;;;;49.83;24.90;;;8.10;1.00;;;;;;5129351;27;20542;-70
2023/10/21 04:55:40;;;;;;;43.17;23.20;;;8.10;1.00;;;;;;5137657;27;20507;-70
2023/10/21 04:58:07;;;;;;;52.70;26.77;;;8.10;1.00;;;;;;5127406;27;20986;-70
2023/10/21 05:00:35;;;;;;;46.50;26.63;;;8.10;1.00;;;;;;5136472;27;20529;-71
2023/10/21 05:03:02;;;;;;;42.60;25.43;;;8.10;1.00;;;;;;5152423;27;20749;-70
2023/10/21 05:05:29;;;;;;;59.00;32.33;;;8.10;1.00;;;;;;5149234;27;20468;-70
2023/10/21 05:07:57;;;;;;;38.67;25.13;;;8.10;1.00;;;;;;5146136;27;21190;-74
2023/10/21 05:10:24;;;;;;;52.57;28.17;;;8.10;1.00;;;;;;5150329;27;20547;-74
2023/10/21 05:12:51;;;;;;;37.53;23.50;;;8.10;1.00;;;;;;5142158;27;20464;-70
2023/10/21 05:15:18;;;;;;;52.67;27.23;;;8.10;1.00;;;;;;5150035;27;20946;-73
2023/10/21 05:17:45;;;;;;;54.87;26.30;;;8.10;1.00;;;;;;5150768;27;20455;-73
2023/10/21 05:20:13;;;;;;;46.83;25.33;;;8.00;1.00;;;;;;5151324;27;20971;-73
2023/10/21 05:22:40;;;;;;;54.78;25.45;;;8.00;1.00;;;;;;5150249;27;21078;-73
2023/10/21 05:25:10;;;;;;;40.43;24.60;;;8.10;1.00;;;;;;5145459;27;21951;-72
2023/10/21 05:27:37;;;;;;;41.15;23.60;;;8.00;1.00;;;;;;5137602;27;22035;-74
2023/10/21 05:30:06;;;;;;;46.90;25.87;;;8.00;1.00;;;;;;5128637;27;20816;-73
2023/10/21 05:32:33;;;;;;;42.93;24.37;;;8.00;1.00;;;;;;5146918;27;20514;-75
2023/10/21 05:35:00;;;;;;;41.37;22.83;;;8.00;1.00;;;;;;5128271;27;20449;-73
2023/10/21 05:37:27;;;;;;;49.85;23.63;;;8.10;1.00;;;;;;5144517;27;21221;-72
2023/10/21 05:39:54;;;;;;;42.07;24.13;;;8.10;1.00;;;;;;5139620;27;20331;-74
2023/10/21 05:42:25;;;;;;;42.53;24.57;;;8.20;1.00;;;;;;5144367;27;20456;-73
2023/10/21 05:44:53;;;;;;;41.77;24.43;;;8.20;1.00;;;;;;5151126;27;21009;-73
2023/10/21 05:47:20;;;;;;;45.80;23.90;;;8.20;1.00;;;;;;5151724;27;21058;-74
2023/10/21 05:49:47;;;;;;;46.87;24.80;;;8.20;1.00;;;;;;5130719;27;20469;-73
2023/10/21 05:52:15;;;;;;;55.45;26.15;;;8.10;1.00;;;;;;5134552;27;21250;-74
2023/10/21 05:54:42;;;;;;;52.87;22.70;;;8.00;1.00;;;;;;5130553;27;20241;-74
2023/10/21 05:57:09;;;;;;;56.57;26.97;;;8.00;1.00;;;;;;5135473;27;21222;-74
2023/10/21 05:59:38;;;;;;;48.65;24.23;;;8.00;1.00;;;;;;5141913;27;20455;-74
2023/10/21 06:02:05;;;;;;;52.80;24.40;;;8.00;1.00;;;;;;5137574;27;20341;-74
2023/10/21 06:04:32;;;;;;;48.78;24.58;;;8.10;1.00;;;;;;5146099;27;20546;-73
2023/10/21 06:06:59;;;;;;;49.47;24.02;;;8.10;1.00;;;;;;5143837;27;20230;-73
2023/10/21 06:09:27;;;;;;;43.28;24.27;;;8.20;1.00;;;;;;5149863;27;20725;-72
2023/10/21 06:11:54;;;;;;;50.67;24.80;;;8.30;1.00;;;;;;5149218;27;20318;-73
2023/10/21 06:14:22;;;;;;;37.03;22.60;;;8.20;1.00;;;;;;5149090;27;20456;-73
2023/10/21 06:16:50;;;;;;;46.13;23.40;;;8.30;1.00;;;;;;5148648;27;20993;-73
2023/10/21 06:19:17;;;;;;;38.20;22.83;;;8.30;1.00;;;;;;5150007;27;21275;-74
2023/10/21 06:21:44;;;;;;;36.70;23.40;;;8.30;1.00;;;;;;5151606;27;20456;-76
2023/10/21 06:24:11;;;;;;;54.20;25.57;;;8.30;1.00;;;;;;5148036;27;20551;-70
2023/10/21 06:26:38;;;;;;;35.43;24.47;;;8.20;1.00;;;;;;5148074;27;21043;-70
2023/10/21 06:29:05;;;;;;;41.22;28.63;;;8.30;1.00;;;;;;5125955;27;20484;-70
2023/10/21 06:31:32;;;;;;;44.90;27.38;;;8.30;1.00;;;;;;5124074;27;20630;-72
2023/10/21 06:34:01;;;;;;;51.88;25.50;;;8.30;1.00;;;;;;5149762;27;21041;-71
2023/10/21 06:36:28;;;;;;;57.47;26.37;;;8.30;1.00;;;;;;5137675;27;20236;-71
2023/10/21 06:38:55;;;;;;;48.17;23.83;;;8.40;1.00;;;;;;5139648;27;20475;-70
2023/10/21 06:41:23;;;;;;;34.60;22.67;;;8.40;1.00;;;;;;5144197;27;20552;-70
2023/10/21 06:43:51;;;;;;;40.27;22.17;;;8.40;1.00;;;;;;5138514;27;20241;-72
2023/10/21 06:46:20;;;;;;;45.93;24.47;;;8.40;1.00;;;;;;5160977;27;20476;-74
2023/10/21 06:48:47;;;;;;;44.13;23.00;;;8.40;1.00;;;;;;5150681;27;20491;-69
2023/10/21 06:51:16;;;;;;;45.50;23.27;;;8.50;1.00;;;;;;5142837;27;20452;-69
2023/10/21 06:53:43;;;;;;;46.47;23.70;;;8.50;1.00;;;;;;5143831;27;20496;-70
2023/10/21 06:56:11;;;;;;;34.97;21.77;;;8.50;1.00;;;;;;5148294;27;20404;-70
2023/10/21 06:58:38;;;;;;;35.13;20.03;;;8.60;1.00;;;;;;5147246;27;20472;-71
2023/10/21 07:01:05;;;;;;;38.83;23.30;;;8.60;1.00;;;;;;5139215;27;20556;-70
2023/10/21 07:03:32;;;;;;;41.97;23.90;;;8.60;1.00;;;;;;5142110;27;20560;-76
2023/10/21 07:05:59;;;;;;;43.37;22.93;;;8.60;1.00;;;;;;5138846;27;20468;-74
2023/10/21 07:08:27;;;;;;;30.80;21.40;;;8.60;1.00;;;;;;5146329;27;20495;-74
2023/10/21 07:10:54;;;;;;;41.40;22.80;;;8.70;1.00;;;;;;5149700;27;20494;-74
2023/10/21 07:13:22;;;;;;;33.00;21.80;;;8.60;1.00;;;;;;5150139;27;20458;-74
2023/10/21 07:15:51;;;;;;;33.93;22.93;;;8.60;1.00;;;;;;5139025;27;20465;-74
2023/10/21 07:18:18;;;;;;;39.50;22.90;;;8.60;1.00;;;;;;5137882;27;20915;-73
2023/10/21 07:20:45;;;;;;;36.93;24.40;;;8.60;1.00;;;;;;5154141;27;20451;-74
2023/10/21 07:23:14;;;;;;;36.65;23.00;;;8.70;1.00;;;;;;5144098;27;20459;-75
2023/10/21 07:25:42;;;;;;;28.23;21.60;;;8.80;1.00;;;;;;5151574;27;20724;-76
2023/10/21 07:28:10;;;;;;;29.00;21.40;;;8.90;1.00;;;;;;5150700;27;20472;-73
2023/10/21 07:30:36;;;;;;;32.73;21.63;;;9.00;1.00;;;;;;5151576;27;20491;-74
2023/10/21 07:33:04;;;;;;;28.73;21.77;;;9.10;1.00;;;;;;5150244;27;20572;-75
2023/10/21 07:35:31;;;;;;;28.43;21.63;;;9.10;1.00;;;;;;5140296;27;20480;-73
2023/10/21 07:37:58;;;;;;;27.77;20.97;;;9.10;1.00;;;;;;5132097;27;20496;-73
2023/10/21 07:40:25;;;;;;;30.10;21.90;;;9.20;1.00;;;;;;5147330;27;20464;-73
2023/10/21 07:42:54;;;;;;;27.90;20.20;;;9.20;1.00;;;;;;5138802;27;20488;-74
2023/10/21 07:45:21;;;;;;;24.50;18.73;;;9.20;1.00;;;;;;5131022;27;20464;-74
2023/10/21 07:47:49;;;;;;;28.77;21.83;;;9.30;1.00;;;;;;5128369;27;20464;-73
2023/10/21 07:50:17;;;;;;;26.83;20.63;;;9.30;1.00;;;;;;5141727;27;20453;-74
2023/10/21 07:52:44;;;;;;;30.90;22.10;;;9.30;1.00;;;;;;5148775;27;20456;-73
2023/10/21 07:55:12;;;;;;;28.67;21.57;;;9.30;1.00;;;;;;5151290;27;20464;-73
2023/10/21 07:57:40;;;;;;;24.77;20.03;;;9.40;1.00;;;;;;5156208;27;20532;-72
2023/10/21 08:00:13;;;;;;;22.83;20.20;;;9.40;1.00;;;;;;5153717;27;20451;-73
2023/10/21 08:02:40;;;;;;;26.03;20.40;;;9.50;1.00;;;;;;5154339;27;20452;-73
2023/10/21 08:05:08;;;;;;;28.00;21.70;;;9.50;1.00;;;;;;5152064;27;20547;-71
2023/10/21 08:07:35;;;;;;;25.93;20.90;;;9.50;1.00;;;;;;5146830;27;20472;-71
2023/10/21 08:10:04;;;;;;;25.27;20.50;;;9.60;1.00;;;;;;5127788;27;20488;-72
2023/10/21 08:12:33;;;;;;;23.40;19.53;;;9.70;1.00;;;;;;5148338;27;21021;-72
2023/10/21 08:15:04;;;;;;;21.27;18.60;;;9.80;1.00;;;;;;5142672;27;21319;-72
2023/10/21 08:17:33;;;;;;;65.87;55.30;;;9.90;1.00;;;;;;5152894;27;20464;-72
2023/10/21 08:20:02;;;;;;;21.83;18.73;;;9.90;1.00;;;;;;5151922;27;20553;-71
2023/10/21 08:22:29;;;;;;;23.00;19.20;;;10.00;1.00;;;;;;5150466;27;20639;-73
2023/10/21 08:24:56;;;;;;;24.60;19.03;;;10.00;1.00;;;;;;5152893;27;20455;-74
2023/10/21 08:27:23;;;;;;;23.50;19.23;;;10.10;1.00;;;;;;5149144;27;21332;-72
2023/10/21 08:29:50;;;;;;;29.43;23.30;;;10.20;1.00;;;;;;5149546;27;20444;-73
2023/10/21 08:32:17;;;;;;;19.13;17.20;;;10.40;1.00;;;;;;5152413;27;20475;-71
2023/10/21 08:34:46;;;;;;;24.70;18.60;;;10.50;1.00;;;;;;5151199;27;20483;-73
2023/10/21 08:37:15;;;;;;;20.10;17.93;;;10.60;1.00;;;;;;5150222;27;20600;-72
2023/10/21 08:39:43;;;;;;;19.23;17.23;;;10.80;1.00;;;;;;5152574;27;20981;-72
2023/10/21 08:42:10;;;;;;;19.67;17.57;;;10.90;1.00;;;;;;5153216;27;20462;-74
2023/10/21 08:44:38;;;;;;;21.27;17.77;;;11.00;1.00;;;;;;5150891;27;20449;-73
2023/10/21 08:47:06;;;;;;;20.20;16.53;;;11.00;1.00;;;;;;5139114;27;20562;-76
2023/10/21 08:49:33;;;;;;;19.50;17.00;;;11.10;1.00;;;;;;5135639;27;20459;-73
2023/10/21 08:52:04;;;;;;;19.10;16.87;;;11.40;1.00;;;;;;5145429;27;20914;-75
2023/10/21 08:54:34;;;;;;;17.10;15.50;;;11.60;1.00;;;;;;5146568;27;20863;-74
2023/10/21 08:57:01;;;;;;;17.87;15.97;;;11.80;1.00;;;;;;5150872;27;20471;-75
2023/10/21 08:59:28;;;;;;;17.50;15.80;;;12.10;1.00;;;;;;5151182;27;21079;-74
2023/10/21 09:01:56;;;;;;;18.33;16.50;;;12.30;1.00;;;;;;5148366;27;20483;-74
2023/10/21 09:04:23;;;;;;;17.43;15.70;;;12.30;1.00;;;;;;5151298;27;20449;-76
2023/10/21 09:06:59;;;;;;;16.33;14.63;;;12.40;1.00;;;;;;5152004;27;20562;-75
2023/10/21 09:09:31;;;;;;;17.70;16.00;;;12.60;1.00;;;;;;5153557;27;20505;-77
2023/10/21 09:12:11;;;;;;;16.47;15.00;;;12.60;1.00;;;;;;5148645;27;21271;-76
2023/10/21 09:14:52;;;;;;;17.03;15.43;;;13.10;1.00;;;;;;5154733;27;20461;-76
2023/10/21 09:17:20;;;;;;;15.67;14.17;;;13.40;1.00;;;;;;5153063;27;20458;-74
2023/10/21 09:19:51;;;;;;;20.80;16.50;;;13.50;1.00;;;;;;5150281;27;20460;-76
2023/10/21 09:22:27;;;;;;;15.43;13.53;;;13.60;1.00;;;;;;5152902;27;20461;-77
2023/10/21 09:25:19;;;;;;;14.70;13.40;;;13.60;1.00;;;;;;5149932;27;20536;-76
2023/10/21 09:27:49;;;;;;;14.63;13.30;;;13.80;1.00;;;;;;5153637;27;21257;-75
2023/10/21 09:30:18;;;;;;;14.83;13.50;;;13.70;1.00;;;;;;5150711;27;20450;-75
2023/10/21 09:32:46;;;;;;;15.50;14.00;;;13.70;1.00;;;;;;5150954;27;20470;-73
2023/10/21 09:35:23;;;;;;;14.30;13.00;;;13.80;1.00;;;;;;5150842;27;20460;-74
2023/10/21 09:37:51;;;;;;;14.37;12.97;;;13.90;1.00;;;;;;5140940;27;20466;-75
2023/10/21 09:40:20;;;;;;;14.43;13.13;;;13.70;1.00;;;;;;5151444;27;20453;-75
2023/10/21 09:42:50;;;;;;;14.73;13.33;;;13.80;1.00;;;;;;5150253;27;20464;-74
2023/10/21 09:45:18;;;;;;;12.50;11.20;;;13.80;1.00;;;;;;5145199;27;20486;-75
2023/10/21 09:47:46;;;;;;;13.03;11.80;;;13.80;1.00;;;;;;5149409;27;20585;-76
2023/10/21 09:50:15;;;;;;;11.97;10.93;;;13.80;1.00;;;;;;5151807;27;20457;-76
2023/10/21 09:52:51;;;;;;;12.53;11.33;;;13.80;1.00;;;;;;5152410;27;20636;-78
2023/10/21 09:55:24;;;;;;;11.10;10.10;;;13.70;1.00;;;;;;5152266;27;21210;-76
2023/10/21 09:57:55;;;;;;;13.10;11.70;;;13.80;1.00;;;;;;5150552;27;21234;-75
2023/10/21 10:00:22;;;;;;;12.53;11.33;;;13.90;1.00;;;;;;5151582;27;21313;-77
2023/10/21 10:02:50;;;;;;;11.83;10.80;;;13.90;1.00;;;;;;5149841;27;20451;-76
2023/10/21 10:05:17;;;;;;;11.87;10.77;;;13.90;1.00;;;;;;5150652;27;21405;-74
2023/10/21 10:07:47;;;;;;;11.30;10.10;;;13.90;1.00;;;;;;5140884;27;20583;-75
2023/10/21 10:10:17;;;;;;;11.00;10.00;;;13.90;1.00;;;;;;5138016;27;20486;-76
2023/10/21 10:12:53;;;;;;;10.53;9.53;;;14.00;1.00;;;;;;5128942;27;20552;-76
2023/10/21 10:15:31;;;;;;;11.90;10.80;;;14.10;1.00;;;;;;5136741;27;20463;-74
2023/10/21 10:17:58;;;;;;;10.53;9.70;;;14.30;1.00;;;;;;5151223;27;20819;-76
2023/10/21 10:20:27;;;;;;;9.80;8.93;;;14.60;1.00;;;;;;5151498;27;20454;-76
2023/10/21 10:23:00;;;;;;;10.70;9.60;;;14.80;1.00;;;;;;5148795;27;20891;-76
2023/10/21 10:25:31;;;;;;;10.40;9.27;;;15.10;1.00;;;;;;5138519;27;20453;-76
2023/10/21 10:28:04;;;;;;;9.80;8.80;;;15.30;1.00;;;;;;5138956;27;20507;-74
2023/10/21 10:30:34;;;;;;;10.63;9.53;;;15.50;1.00;;;;;;5128247;27;21171;-76
2023/10/21 10:33:12;;;;;;;11.80;9.60;;;15.70;1.00;;;;;;5129658;27;20449;-76
2023/10/21 10:35:43;;;;;;;10.83;9.73;;;15.90;1.00;;;;;;5139525;27;21318;-75
2023/10/21 10:38:20;;;;;;;9.23;8.40;;;16.00;1.00;;;;;;5150028;27;20887;-76
2023/10/21 10:40:48;;;;;;;9.17;8.37;;;16.30;1.00;;;;;;5151722;27;20488;-75
2023/10/21 10:43:19;;;;;;;8.23;7.63;;;16.60;1.00;;;;;;5151215;27;20486;-75
2023/10/21 10:45:47;;;;;;;8.57;7.80;;;17.10;1.00;;;;;;5150218;27;20514;-74
2023/10/21 10:48:15;;;;;;;8.70;7.90;;;17.40;1.00;;;;;;5151356;27;20547;-75
2023/10/21 10:50:42;;;;;;;7.47;6.40;;;17.50;1.00;;;;;;5150214;27;20997;-77
2023/10/21 10:53:13;;;;;;;7.33;6.60;;;17.80;1.00;;;;;;5152710;27;20540;-74
2023/10/21 10:55:42;;;;;;;6.83;5.47;;;18.30;1.00;;;;;;5149834;27;20469;-75
2023/10/21 10:58:11;;;;;;;6.93;6.33;;;19.10;1.00;;;;;;5151134;27;20995;-73
2023/10/21 11:00:40;;;;;;;5.47;5.07;;;19.70;1.00;;;;;;5155264;27;20450;-75
2023/10/21 11:03:08;;;;;;;5.77;5.27;;;20.30;1.00;;;;;;5153804;27;20530;-76
2023/10/21 11:05:37;;;;;;;4.10;3.80;;;21.00;1.00;;;;;;5153160;27;20470;-70
2023/10/21 11:08:07;;;;;;;5.93;4.53;;;21.60;1.00;;;;;;5152259;27;20983;-70
2023/10/21 11:10:34;;;;;;;3.53;3.23;;;22.00;1.00;;;;;;5155290;27;20448;-71
2023/10/21 11:13:03;;;;;;;3.23;2.93;;;21.60;1.00;;;;;;5150785;27;20549;-72
2023/10/21 11:15:30;;;;;;;2.40;2.20;;;20.80;1.00;;;;;;5146361;27;22104;-70
2023/10/21 11:18:00;;;;;;;3.00;2.40;;;20.10;1.00;;;;;;5146128;27;21718;-70
2023/10/21 11:20:27;;;;;;;2.10;1.50;;;19.60;1.00;;;;;;5153352;27;20454;-71
2023/10/21 11:22:55;;;;;;;3.50;2.40;;;19.20;1.00;;;;;;5146085;27;20468;-71
2023/10/21 11:25:24;;;;;;;2.90;1.60;;;18.80;1.00;;;;;;5152267;27;20453;-70
2023/10/21 11:27:51;;;;;;;1.57;0.97;;;18.70;1.00;;;;;;5153641;27;20478;-70
2023/10/21 11:30:18;;;;;;;1.80;1.00;;;18.60;1.00;;;;;;5141085;27;20441;-69
2023/10/21 11:32:46;;;;;;;0.90;0.80;;;18.30;1.00;;;;;;5149747;27;20459;-69
2023/10/21 11:35:15;;;;;;;2.20;0.87;;;18.20;1.00;;;;;;5150075;27;20457;-71
2023/10/21 11:37:42;;;;;;;0.80;0.70;;;18.10;1.00;;;;;;5154260;27;20503;-73
2023/10/21 11:40:15;;;;;;;2.73;0.70;;;18.10;1.00;;;;;;5154478;27;20956;-71
2023/10/21 11:42:44;;;;;;;1.07;0.87;;;18.10;1.00;;;;;;5155639;27;21229;-72
2023/10/21 11:45:13;;;;;;;0.90;0.60;;;18.20;1.00;;;;;;5154068;27;20457;-71
2023/10/21 11:47:40;;;;;;;1.80;1.13;;;18.40;1.00;;;;;;5134566;27;20571;-69
2023/10/21 11:50:10;;;;;;;1.87;0.87;;;18.70;1.00;;;;;;5130642;27;21022;-69
2023/10/21 11:52:42;;;;;;;1.63;1.17;;;19.00;1.00;;;;;;5129335;27;20456;-71
2023/10/21 11:55:35;;;;;;;2.37;1.20;;;19.50;1.00;;;;;;5110093;27;20975;-69
2023/10/21 12:04:27;;;;;;;2.30;0.80;;;19.70;1.00;;;;;;5129691;27;20951;-72
2023/10/21 12:15:36;;;;;;;0.80;0.47;;;24.60;1.00;;;;;;5129509;27;20452;-70
2023/10/21 12:21:16;;;;;;;1.57;0.63;;;23.20;1.00;;;;;;5138187;27;20475;-68
2023/10/21 12:26:51;;;;;;;1.10;0.73;;;22.20;1.00;;;;;;5126656;27;20455;-68
2023/10/21 12:35:10;;;;;;;2.43;1.23;;;21.70;1.00;;;;;;5128571;27;20482;-68
2023/10/21 12:40:32;;;;;;;1.53;1.07;;;20.80;1.00;;;;;;5147379;27;20453;-70
2023/10/21 12:43:23;;;;;;;3.33;0.77;;;21.20;1.00;;;;;;5151342;27;20475;-69
2023/10/21 12:45:50;;;;;;;3.33;2.80;;;21.70;1.00;;;;;;5145894;27;20963;-72
2023/10/21 12:48:18;;;;;;;0.97;0.80;;;22.00;1.00;;;;;;5148712;27;20460;-71
2023/10/21 12:50:45;;;;;;;0.90;0.80;;;21.60;1.00;;;;;;5148679;27;20468;-69
2023/10/21 12:53:12;;;;;;;3.20;0.70;;;21.30;1.00;;;;;;5150362;27;20499;-72
2023/10/21 12:55:39;;;;;;;2.80;0.87;;;21.40;1.00;;;;;;5152289;27;20453;-69
2023/10/21 12:58:08;;;;;;;1.03;0.73;;;21.40;1.00;;;;;;5152471;27;20490;-72
2023/10/21 13:00:35;;;;;;;0.93;0.90;;;21.20;1.00;;;;;;5148802;27;20458;-69
2023/10/21 13:03:09;;;;;;;1.43;0.63;;;21.10;1.00;;;;;;5153304;27;20969;-69
2023/10/21 13:05:36;;;;;;;1.27;0.87;;;21.60;1.00;;;;;;5149269;27;20463;-68
2023/10/21 13:08:07;;;;;;;1.80;0.90;;;21.70;1.00;;;;;;5139611;27;20529;-70
2023/10/21 13:10:38;;;;;;;1.20;0.90;;;21.20;1.00;;;;;;5149685;27;20468;-71
2023/10/21 13:13:08;;;;;;;1.47;0.70;;;20.60;1.00;;;;;;5148533;27;20496;-69
2023/10/21 13:15:36;;;;;;;2.40;0.63;;;20.40;1.00;;;;;;5145192;27;20448;-72
2023/10/21 13:18:05;;;;;;;1.53;0.70;;;20.40;1.00;;;;;;5150230;27;20478;-69
2023/10/21 13:20:32;;;;;;;3.10;1.10;;;20.50;1.00;;;;;;5148321;27;20978;-70
2023/10/21 13:22:59;;;;;;;1.30;0.90;;;20.30;1.00;;;;;;5147199;27;20543;-69